Sharpstown, Texas
Current Conditions -  °F | °C
As of 11:35 PM on Friday 19 Dec 2014 (Local Time) from KMCJ Reporting Station
Overcast Overcast  
Wind Chill: 52°   Ceiling: 400
Heat Index: 52°   Visibility: NA
Dew Point: 50°   Wind: 10mph
Humidity: 94%   Direction: 340°NNW
Pressure: 30.1"   Gusts: NA
Location:  29.7004°N, 95.5366°W
Report Text: KMCJ 200535Z AUTO 34009KT OVC004 11/10 A3010 RMK AO1
Loading
Personal Weather Stations






























Interactive Weather Map New forecast layout! Learn more

10-Day Weather Forecast

Advertisements
Track Severe Weather on mobile